Delphos, OH (45833)

9:27 PM EST on December 27, 2014 (GMT -0500)
KOHDELPH2 | Change Station
CLOSE
Current Station
Personal Weather Station
Location: Delphos, OH
Elevation: 781 ft
Nearby Weather Stations

Elev 781 ft 40.84 °N, 84.35 °W | Updated 2 minutes ago

Overcast
Overcast
41.1 °F
Feels Like 37 °F
N
6.0
Wind Variable Wind from West

Today
High -- | Low -- °F
--% Chance of Precip.
Yesterday
High -- | Low -- °F
Precip. -- in
8:00 AM 5:16 PM
Waxing Crescent, 42% visible
Pressure 30.02 in
Visibility 2.5 miles
Clouds Overcast 600 ft
Windchill 37 °F
Dew Point 39 °F
Humidity 91%
Rainfall 0.00 in
Snow Depth Not available.
UV 0 out of 12
Pollen .10 out of 12
Air Quality Not available.
Flu Activity Not available.
SPECI KAOH 280217Z AUTO 24011KT 2 1/2SM -RA BR OVC006 09/07 A3002 RMK AO2 CIG 004V010 P0001 T00890072

More Conditions Fewer Conditions

Pressure 30.02 in
Visibility 2.5 miles
Clouds Overcast 600 ft
Windchill 37 °F
Dew Point 39 °F
Humidity 91%
Rainfall 0.00 in
Snow Depth Not available.
UV 0 out of 12
Pollen .10 out of 12
Air Quality Not available.
Flu Activity Not available.
SPECI KAOH 280217Z AUTO 24011KT 2 1/2SM -RA BR OVC006 09/07 A3002 RMK AO2 CIG 004V010 P0001 T00890072

More Conditions Fewer Conditions

10-Day Weather Forecast

Almanac

Astronomy

Dec. 27, 2014 Rise Set
Actual Time
Civil Twilight
Nautical Twilight
Astronomical Twilight
Moon
Length of Visible Light
Length of Day
Tomorrow will be .
, % of the Moon is Illuminated

Today's Extremes

State Highs State Lows

Community

WunderPhotos

Upload Photos

1,781,142 photos uploaded!

WunderBlogs® & News

Nearby

Air Quality

  Air Quality AQ Index Pollutant
Not available.

Snow Depth

Station Depth Elevation

Earthquake Activity

City Distance Mag. Time & Date
Minimum magnitude displayed is 2.5.

Coastal Water Temperatures

Place Temperature

Nearby Weather Stations